createdAt,value
2023-02-10T00:01:25.034Z,1.40
2023-02-10T00:03:52.336Z,2.78
2023-02-10T00:06:20.643Z,2.15
2023-02-10T00:08:52.235Z,2.05
2023-02-10T00:11:19.683Z,1.80
2023-02-10T00:13:47.388Z,2.10
2023-02-10T00:16:16.005Z,4.35
2023-02-10T00:18:42.925Z,2.25
2023-02-10T00:21:12.760Z,1.35
2023-02-10T00:23:39.377Z,4.60
2023-02-10T00:26:07.668Z,3.47
2023-02-10T00:28:35.558Z,2.10
2023-02-10T00:31:14.598Z,3.38
2023-02-10T00:33:42.389Z,1.05
2023-02-10T00:36:11.079Z,1.33
2023-02-10T00:38:38.570Z,1.65
2023-02-10T00:41:11.865Z,2.25
2023-02-10T00:43:40.374Z,1.77
2023-02-10T00:46:07.590Z,1.95
2023-02-10T00:48:34.442Z,2.63
2023-02-10T00:51:01.288Z,1.38
2023-02-10T00:53:29.188Z,2.60
2023-02-10T00:55:56.998Z,2.40
2023-02-10T00:58:24.196Z,2.78
2023-02-10T01:00:51.108Z,2.67
2023-02-10T01:03:18.168Z,2.60
2023-02-10T01:05:46.272Z,5.57
2023-02-10T01:08:14.222Z,5.47
2023-02-10T01:10:40.930Z,1.67
2023-02-10T01:13:12.843Z,3.27
2023-02-10T01:15:47.974Z,3.55
2023-02-10T01:18:15.214Z,2.70
2023-02-10T01:20:43.125Z,3.70
2023-02-10T01:23:10.408Z,4.05
2023-02-10T01:25:37.810Z,3.23
2023-02-10T01:28:05.691Z,4.45
2023-02-10T01:30:33.557Z,2.25
2023-02-10T01:33:00.204Z,3.88
2023-02-10T01:35:26.838Z,2.22
2023-02-10T01:37:55.255Z,1.63
2023-02-10T01:40:23.213Z,4.53
2023-02-10T01:42:51.935Z,2.20
2023-02-10T01:45:32.370Z,4.35
2023-02-10T01:48:00.730Z,2.40
2023-02-10T01:50:31.290Z,3.27
2023-02-10T01:53:00.020Z,4.28
2023-02-10T01:55:34.515Z,3.55
2023-02-10T01:58:04.930Z,4.30
2023-02-10T02:00:31.785Z,3.33
2023-02-10T02:02:58.658Z,4.20
2023-02-10T02:05:36.978Z,1.98
2023-02-10T02:08:32.642Z,4.28
2023-02-10T02:11:15.556Z,2.58
2023-02-10T02:14:00.563Z,1.60
2023-02-10T02:16:39.728Z,3.80
2023-02-10T02:19:31.941Z,2.67
2023-02-10T02:22:32.486Z,3.78
2023-02-10T02:25:17.694Z,1.60
2023-02-10T02:27:45.450Z,2.55
2023-02-10T02:30:41.324Z,2.30
2023-02-10T02:33:34.273Z,3.22
2023-02-10T02:36:12.164Z,3.53
2023-02-10T02:38:40.473Z,4.80
2023-02-10T02:41:07.408Z,2.08
2023-02-10T02:43:34.368Z,5.70
2023-02-10T02:46:38.216Z,1.80
2023-02-10T02:49:26.208Z,4.85
2023-02-10T02:52:06.919Z,2.75
2023-02-10T02:54:58.160Z,2.45
2023-02-10T02:57:39.504Z,3.10
2023-02-10T03:00:11.867Z,2.80
2023-02-10T03:02:42.408Z,3.42
2023-02-10T03:05:10.007Z,3.58
2023-02-10T03:07:37.617Z,4.05
2023-02-10T03:10:05.512Z,4.43
2023-02-10T03:12:32.350Z,4.43
2023-02-10T03:14:58.935Z,3.75
2023-02-10T03:17:25.507Z,4.53
2023-02-10T03:19:52.108Z,1.05
2023-02-10T03:22:18.671Z,3.53
2023-02-10T03:24:45.372Z,2.85
2023-02-10T03:27:11.991Z,2.40
2023-02-10T03:29:38.638Z,2.40
2023-02-10T03:32:06.328Z,3.22
2023-02-10T03:34:33.115Z,3.57
2023-02-10T03:36:59.822Z,0.73
2023-02-10T03:39:26.646Z,3.40
2023-02-10T03:41:54.343Z,5.03
2023-02-10T03:44:21.032Z,4.40
2023-02-10T03:46:47.564Z,2.40
2023-02-10T03:49:14.201Z,3.40
2023-02-10T03:51:40.814Z,3.65
2023-02-10T03:54:07.541Z,1.75
2023-02-10T03:56:34.325Z,1.40
2023-02-10T03:59:05.219Z,2.70
2023-02-10T04:01:32.743Z,2.55
2023-02-10T04:03:59.351Z,1.80
2023-02-10T04:06:26.154Z,1.95
2023-02-10T04:08:52.900Z,3.97
2023-02-10T04:11:20.198Z,2.10
2023-02-10T04:13:46.839Z,4.13
2023-02-10T04:16:15.891Z,1.45
2023-02-10T04:18:43.546Z,1.65
2023-02-10T04:21:11.888Z,3.08
2023-02-10T04:23:38.535Z,3.40
2023-02-10T04:26:05.869Z,2.63
2023-02-10T04:28:32.861Z,3.03
2023-02-10T04:31:00.988Z,2.58
2023-02-10T04:33:28.401Z,2.47
2023-02-10T04:35:56.505Z,2.43
2023-02-10T04:38:23.534Z,4.25
2023-02-10T04:40:50.221Z,4.10
2023-02-10T04:43:17.009Z,1.73
2023-02-10T04:45:43.649Z,4.50
2023-02-10T04:48:10.283Z,2.30
2023-02-10T04:50:38.423Z,3.75
2023-02-10T04:53:05.990Z,4.15
2023-02-10T04:55:33.091Z,2.63
2023-02-10T04:58:00.123Z,4.45
2023-02-10T05:00:27.245Z,1.37
2023-02-10T05:02:54.028Z,2.65
2023-02-10T05:05:20.797Z,3.15
2023-02-10T05:07:47.367Z,3.13
2023-02-10T05:10:13.999Z,4.68
2023-02-10T05:12:40.621Z,2.90
2023-02-10T05:15:08.944Z,3.58
2023-02-10T05:17:35.793Z,2.15
2023-02-10T05:20:04.044Z,2.65
2023-02-10T05:22:30.699Z,2.45
2023-02-10T05:24:58.944Z,5.03
2023-02-10T05:27:26.286Z,1.77
2023-02-10T05:29:52.935Z,3.03
2023-02-10T05:32:19.767Z,5.55
2023-02-10T05:34:46.423Z,2.42
2023-02-10T05:37:13.026Z,3.30
2023-02-10T05:39:41.010Z,3.58
2023-02-10T05:42:07.702Z,5.70
2023-02-10T05:44:34.561Z,4.78
2023-02-10T05:47:01.115Z,6.70
2023-02-10T05:49:27.782Z,4.03
2023-02-10T05:51:54.394Z,3.90
2023-02-10T05:54:21.031Z,2.08
2023-02-10T05:56:48.202Z,6.45
2023-02-10T05:59:15.681Z,3.60
2023-02-10T06:01:43.471Z,3.70
2023-02-10T06:04:10.821Z,1.67
2023-02-10T06:06:37.377Z,3.90
2023-02-10T06:09:04.834Z,1.48
2023-02-10T06:11:31.957Z,4.38
2023-02-10T06:14:01.361Z,3.57
2023-02-10T06:16:28.677Z,4.32
2023-02-10T06:18:56.058Z,4.00
2023-02-10T06:21:23.770Z,3.50
2023-02-10T06:23:51.789Z,6.25
2023-02-10T06:26:19.088Z,4.43
2023-02-10T06:28:45.838Z,5.47
2023-02-10T06:31:12.684Z,5.05
2023-02-10T06:33:39.401Z,4.47
2023-02-10T06:36:08.594Z,4.15
2023-02-10T06:38:36.298Z,3.67
2023-02-10T06:41:03.437Z,4.32
2023-02-10T06:43:30.201Z,2.22
2023-02-10T06:45:57.131Z,5.85
2023-02-10T06:48:27.556Z,2.45
2023-02-10T06:50:56.485Z,9.50
2023-02-10T06:53:23.161Z,3.30
2023-02-10T06:55:50.150Z,3.10
2023-02-10T06:58:17.317Z,5.28
2023-02-10T07:00:44.601Z,3.92
2023-02-10T07:03:15.479Z,4.63
2023-02-10T07:05:42.177Z,6.78
2023-02-10T07:08:09.263Z,5.25
2023-02-10T07:10:36.212Z,4.97
2023-02-10T07:13:03.163Z,5.97
2023-02-10T07:15:29.924Z,5.27
2023-02-10T07:17:56.567Z,5.82
2023-02-10T07:20:23.416Z,5.35
2023-02-10T07:22:51.157Z,12.23
2023-02-10T07:25:18.211Z,5.60
2023-02-10T07:27:45.157Z,7.77
2023-02-10T07:30:12.948Z,6.72
2023-02-10T07:32:39.779Z,4.03
2023-02-10T07:35:06.524Z,3.17
2023-02-10T07:37:33.123Z,8.13
2023-02-10T07:39:59.813Z,8.27
2023-02-10T07:42:26.484Z,5.80
2023-02-10T07:45:11.873Z,8.38
2023-02-10T07:47:38.538Z,6.55
2023-02-10T07:50:05.487Z,7.25
2023-02-10T07:52:32.156Z,4.17
2023-02-10T07:54:59.631Z,2.78
2023-02-10T07:57:26.255Z,1.98
2023-02-10T07:59:52.887Z,3.42
2023-02-10T08:02:20.007Z,3.78
2023-02-10T08:04:46.775Z,4.50
2023-02-10T08:07:13.661Z,6.47
2023-02-10T08:09:40.237Z,19.73
2023-02-10T08:12:07.014Z,29.33
2023-02-10T08:14:33.769Z,12.23
2023-02-10T08:17:00.393Z,8.57
2023-02-10T08:19:26.968Z,11.63
2023-02-10T08:21:53.644Z,9.00
2023-02-10T08:24:20.294Z,26.88
2023-02-10T08:26:47.022Z,22.95
2023-02-10T08:29:13.653Z,23.90
2023-02-10T08:31:40.703Z,33.95
2023-02-10T08:34:15.150Z,50.88
2023-02-10T08:36:43.464Z,26.38
2023-02-10T08:39:10.317Z,32.45
2023-02-10T08:41:37.403Z,24.57
2023-02-10T08:44:04.216Z,15.13
2023-02-10T08:46:30.952Z,14.27
2023-02-10T08:48:57.742Z,11.68
2023-02-10T08:51:24.399Z,4.40
2023-02-10T08:53:50.994Z,4.83
2023-02-10T08:56:19.240Z,6.00
2023-02-10T08:58:47.237Z,5.18
2023-02-10T09:01:16.969Z,5.10
2023-02-10T09:03:44.638Z,7.25
2023-02-10T09:06:20.992Z,4.57
2023-02-10T09:08:48.557Z,8.32
2023-02-10T09:11:17.272Z,7.32
2023-02-10T09:13:43.914Z,3.97
2023-02-10T09:16:10.642Z,4.68
2023-02-10T09:18:37.384Z,16.50
2023-02-10T09:21:04.025Z,6.93
2023-02-10T09:23:30.717Z,6.15
2023-02-10T09:25:59.220Z,7.68
2023-02-10T09:28:27.218Z,7.28
2023-02-10T09:30:53.933Z,5.57
2023-02-10T09:33:20.804Z,7.03
2023-02-10T09:35:47.753Z,4.28
2023-02-10T09:38:14.721Z,6.35
2023-02-10T09:41:20.920Z,8.98
2023-02-10T09:43:58.428Z,3.80
2023-02-10T09:46:46.080Z,6.43
2023-02-10T09:49:28.073Z,4.72
2023-02-10T09:52:02.031Z,6.78
2023-02-10T09:54:32.348Z,6.10
2023-02-10T09:57:12.137Z,5.47
2023-02-10T09:59:39.491Z,4.80
2023-02-10T10:02:16.374Z,6.13
2023-02-10T10:04:44.100Z,6.90
2023-02-10T10:07:24.190Z,5.60
2023-02-10T10:10:03.420Z,4.00
2023-02-10T10:12:30.850Z,9.43
2023-02-10T10:14:58.221Z,4.93
2023-02-10T10:17:54.727Z,3.67
2023-02-10T10:20:34.124Z,4.88
2023-02-10T10:23:26.003Z,2.60
2023-02-10T10:26:11.162Z,6.03
2023-02-10T10:28:53.336Z,6.50
2023-02-10T10:31:33.642Z,9.98
2023-02-10T10:34:13.503Z,8.05
2023-02-10T10:36:47.931Z,4.03
2023-02-10T10:39:14.563Z,9.07
2023-02-10T10:41:43.675Z,4.85
2023-02-10T10:44:15.292Z,4.22
2023-02-10T10:46:51.632Z,7.25
2023-02-10T10:49:18.873Z,6.43
2023-02-10T10:51:48.809Z,5.18
2023-02-10T10:54:19.421Z,8.52
2023-02-10T10:57:16.460Z,5.15
2023-02-10T10:59:49.975Z,5.68
2023-02-10T11:02:19.903Z,5.20
2023-02-10T11:04:47.260Z,9.52
2023-02-10T11:07:20.444Z,4.38
2023-02-10T11:09:52.599Z,4.53
2023-02-10T11:12:28.241Z,3.78
2023-02-10T11:14:55.836Z,6.20
2023-02-10T11:17:30.003Z,14.02
2023-02-10T11:20:05.925Z,11.00
2023-02-10T11:22:32.870Z,12.25
2023-02-10T11:25:20.522Z,9.40
2023-02-10T11:27:54.747Z,10.50
2023-02-10T11:30:36.329Z,11.13
2023-02-10T11:33:05.240Z,9.77
2023-02-10T11:35:33.647Z,11.30
2023-02-10T11:38:04.360Z,12.88
2023-02-10T11:40:49.673Z,8.93
2023-02-10T11:43:17.169Z,4.60
2023-02-10T11:45:57.697Z,8.43
2023-02-10T11:48:26.261Z,10.27
2023-02-10T11:51:22.536Z,7.50
2023-02-10T11:53:49.800Z,9.03
2023-02-10T11:56:53.421Z,5.10
2023-02-10T11:59:49.319Z,13.20
2023-02-10T12:02:46.213Z,10.10
2023-02-10T12:05:29.561Z,11.23
2023-02-10T12:08:11.776Z,16.53
2023-02-10T12:10:45.595Z,10.90
2023-02-10T12:13:33.440Z,5.13
2023-02-10T12:16:33.915Z,6.82
2023-02-10T12:19:19.112Z,14.10
2023-02-10T12:22:03.706Z,12.03
2023-02-10T12:24:59.627Z,10.95
2023-02-10T12:27:53.807Z,8.55
2023-02-10T12:30:56.980Z,9.65
2023-02-10T12:33:57.698Z,9.68
2023-02-10T12:36:35.115Z,7.20
2023-02-10T12:39:23.991Z,4.47
2023-02-10T12:42:06.166Z,6.68
2023-02-10T12:44:55.437Z,5.32
2023-02-10T12:47:34.161Z,5.88
2023-02-10T12:50:38.181Z,4.07
2023-02-10T12:53:20.740Z,8.57
2023-02-10T12:56:02.292Z,6.05
2023-02-10T12:58:37.114Z,4.53
2023-02-10T13:01:23.757Z,4.53
2023-02-10T13:03:58.423Z,4.00
2023-02-10T13:06:38.080Z,7.30
2023-02-10T13:09:22.564Z,6.40
2023-02-10T13:12:11.036Z,9.70
2023-02-10T13:14:40.593Z,5.45
2023-02-10T13:17:07.160Z,7.00
2023-02-10T13:20:08.459Z,7.82
2023-02-10T13:22:54.049Z,10.30
2023-02-10T13:25:32.222Z,7.07
2023-02-10T13:28:30.126Z,8.43
2023-02-10T13:31:18.746Z,6.57
2023-02-10T13:34:00.210Z,7.78
2023-02-10T13:36:29.412Z,6.30
2023-02-10T13:39:07.105Z,6.38
2023-02-10T13:41:47.095Z,8.48
2023-02-10T13:44:30.378Z,7.23
2023-02-10T13:47:22.873Z,6.07
2023-02-10T13:49:54.409Z,10.10
2023-02-10T13:52:25.621Z,6.13
2023-02-10T13:55:02.692Z,7.00
2023-02-10T13:57:35.303Z,8.00
2023-02-10T14:00:18.806Z,7.40
2023-02-10T14:02:58.551Z,9.32
2023-02-10T14:05:31.700Z,6.43
2023-02-10T14:07:58.986Z,2.97
2023-02-10T14:10:27.709Z,6.50
2023-02-10T14:13:00.698Z,4.30
2023-02-10T14:15:30.739Z,6.55
2023-02-10T14:18:26.764Z,14.23
2023-02-10T14:21:00.819Z,9.20
2023-02-10T14:23:30.397Z,13.73
2023-02-10T14:26:04.461Z,5.35
2023-02-10T14:28:37.164Z,6.95
2023-02-10T14:31:14.674Z,6.93
2023-02-10T14:33:41.576Z,12.25
2023-02-10T14:36:18.419Z,12.70
2023-02-10T14:38:58.079Z,9.25
2023-02-10T14:41:28.463Z,9.57
2023-02-10T14:43:56.194Z,6.45
2023-02-10T14:46:32.279Z,4.28
2023-02-10T14:49:03.150Z,6.23
2023-02-10T14:51:30.931Z,6.28
2023-02-10T14:54:08.833Z,4.18
2023-02-10T14:56:35.446Z,6.57
2023-02-10T14:59:02.069Z,5.43
2023-02-10T15:01:35.143Z,4.93
2023-02-10T15:04:02.320Z,5.80
2023-02-10T15:06:31.325Z,7.90
2023-02-10T15:09:12.462Z,10.75
2023-02-10T15:12:02.433Z,7.20
2023-02-10T15:15:07.839Z,7.83
2023-02-10T15:17:46.955Z,7.78
2023-02-10T15:20:28.903Z,15.32
2023-02-10T15:23:02.976Z,10.15
2023-02-10T15:25:39.823Z,7.25
2023-02-10T15:28:11.801Z,10.27
2023-02-10T15:30:54.761Z,9.65
2023-02-10T15:33:24.553Z,7.53
2023-02-10T15:36:12.839Z,6.40
2023-02-10T15:39:17.864Z,11.23
2023-02-10T15:41:57.596Z,6.67
2023-02-10T15:45:01.091Z,5.35
2023-02-10T15:47:38.637Z,10.05
2023-02-10T15:50:05.396Z,11.05
2023-02-10T15:52:40.406Z,8.77
2023-02-10T15:55:20.824Z,7.70
2023-02-10T15:57:50.190Z,9.60
2023-02-10T16:00:25.959Z,9.85
2023-02-10T16:02:53.092Z,13.30
2023-02-10T16:05:20.184Z,9.20
2023-02-10T16:07:47.135Z,11.43
2023-02-10T16:10:20.994Z,5.72
2023-02-10T16:12:48.326Z,9.05
2023-02-10T16:15:16.731Z,9.07
2023-02-10T16:17:46.259Z,10.13
2023-02-10T16:20:19.325Z,9.60
2023-02-10T16:22:47.586Z,9.30
2023-02-10T16:25:16.654Z,16.08
2023-02-10T16:27:44.042Z,19.63
2023-02-10T16:30:23.312Z,11.63
2023-02-10T16:32:50.112Z,14.27
2023-02-10T16:35:17.349Z,11.48
2023-02-10T16:37:44.508Z,13.82
2023-02-10T16:40:20.101Z,21.33
2023-02-10T16:42:46.792Z,12.50
2023-02-10T16:45:13.605Z,17.80
2023-02-10T16:47:40.330Z,18.27
2023-02-10T16:50:07.711Z,14.45
2023-02-10T16:52:37.672Z,15.20
2023-02-10T16:55:04.821Z,10.90
2023-02-10T16:57:31.520Z,12.60
2023-02-10T16:59:58.185Z,13.02
2023-02-10T17:02:24.811Z,11.20
2023-02-10T17:04:51.516Z,19.38
2023-02-10T17:07:18.248Z,26.33
2023-02-10T17:09:44.910Z,22.07
2023-02-10T17:12:11.502Z,19.52
2023-02-10T17:14:38.205Z,18.77
2023-02-10T17:17:04.882Z,16.02
2023-02-10T17:19:34.159Z,16.35
2023-02-10T17:22:00.931Z,18.77
2023-02-10T17:24:27.569Z,20.13
2023-02-10T17:26:54.954Z,17.65
2023-02-10T17:29:22.506Z,21.20
2023-02-10T17:31:49.755Z,17.55
2023-02-10T17:34:16.663Z,23.30
2023-02-10T17:36:43.372Z,22.45
2023-02-10T17:39:27.888Z,21.17
2023-02-10T17:41:56.132Z,20.10
2023-02-10T17:44:25.889Z,11.25
2023-02-10T17:46:55.924Z,13.25
2023-02-10T17:49:31.803Z,15.43
2023-02-10T17:51:59.913Z,13.15
2023-02-10T17:54:27.798Z,19.77
2023-02-10T17:56:54.468Z,18.45
2023-02-10T17:59:21.198Z,14.20
2023-02-10T18:01:48.301Z,14.63
2023-02-10T18:04:16.911Z,16.88
2023-02-10T18:06:44.435Z,24.77
2023-02-10T18:09:14.936Z,14.15
2023-02-10T18:11:42.277Z,16.38
2023-02-10T18:14:09.072Z,21.85
2023-02-10T18:16:35.717Z,24.55
2023-02-10T18:19:02.580Z,20.42
2023-02-10T18:21:30.429Z,18.48
2023-02-10T18:23:57.337Z,12.75
2023-02-10T18:26:24.077Z,17.13
2023-02-10T18:28:50.747Z,16.23
2023-02-10T18:31:18.398Z,16.40
2023-02-10T18:33:45.805Z,13.10
2023-02-10T18:36:16.322Z,15.40
2023-02-10T18:38:43.585Z,16.90
2023-02-10T18:41:10.438Z,16.17
2023-02-10T18:43:37.233Z,11.35
2023-02-10T18:46:03.958Z,13.43
2023-02-10T18:48:32.042Z,10.80
2023-02-10T18:51:03.568Z,17.95
2023-02-10T18:53:40.150Z,11.88
2023-02-10T18:56:13.102Z,9.73
2023-02-10T18:58:40.883Z,12.10
2023-02-10T19:01:10.452Z,11.10
2023-02-10T19:03:38.041Z,11.40
2023-02-10T19:06:06.315Z,12.02
2023-02-10T19:08:33.345Z,12.40
2023-02-10T19:11:01.961Z,15.88
2023-02-10T19:13:29.317Z,17.85
2023-02-10T19:15:56.777Z,50.22
2023-02-10T19:18:24.534Z,35.40
2023-02-10T19:20:54.367Z,21.52
2023-02-10T19:23:24.650Z,12.80
2023-02-10T19:25:52.422Z,13.07
2023-02-10T19:28:19.467Z,12.00
2023-02-10T19:30:47.366Z,18.38
2023-02-10T19:33:14.092Z,21.70
2023-02-10T19:35:47.447Z,20.13
2023-02-10T19:38:14.193Z,17.15
2023-02-10T19:40:40.768Z,38.03
2023-02-10T19:43:07.391Z,26.85
2023-02-10T19:45:33.997Z,13.43
2023-02-10T19:48:00.676Z,112.35
2023-02-10T19:50:27.399Z,38.35
2023-02-10T19:52:53.977Z,19.85
2023-02-10T19:55:20.561Z,23.20
2023-02-10T19:57:48.929Z,38.33
2023-02-10T20:00:15.892Z,33.58
2023-02-10T20:02:42.544Z,26.23
2023-02-10T20:05:09.236Z,24.25
2023-02-10T20:07:35.985Z,23.58
2023-02-10T20:10:02.894Z,21.02
2023-02-10T20:12:31.253Z,16.08
2023-02-10T20:14:58.620Z,14.73
2023-02-10T20:17:25.397Z,17.77
2023-02-10T20:19:52.081Z,16.38
2023-02-10T20:22:18.859Z,18.73
2023-02-10T20:24:45.543Z,17.90
2023-02-10T20:27:12.678Z,18.80
2023-02-10T20:29:39.663Z,37.78
2023-02-10T20:32:06.456Z,24.58
2023-02-10T20:34:33.128Z,19.35
2023-02-10T20:36:59.841Z,25.17
2023-02-10T20:39:26.579Z,24.27
2023-02-10T20:41:53.246Z,23.10
2023-02-10T20:44:19.888Z,18.35
2023-02-10T20:46:47.800Z,20.45
2023-02-10T20:49:14.483Z,42.75
2023-02-10T20:51:41.293Z,27.05
2023-02-10T20:54:07.918Z,36.65
2023-02-10T20:56:34.871Z,31.85
2023-02-10T20:59:03.325Z,38.80
2023-02-10T21:01:32.618Z,28.05
2023-02-10T21:04:01.741Z,39.78
2023-02-10T21:06:28.489Z,88.55
2023-02-10T21:08:57.557Z,88.68
2023-02-10T21:11:27.787Z,48.00
2023-02-10T21:13:55.115Z,45.92
2023-02-10T21:16:23.265Z,24.75
2023-02-10T21:18:50.717Z,34.83
2023-02-10T21:21:19.187Z,27.33
2023-02-10T21:23:46.730Z,29.60
2023-02-10T21:26:13.323Z,28.52
2023-02-10T21:28:40.354Z,30.65
2023-02-10T21:31:13.184Z,30.42
2023-02-10T21:33:40.462Z,26.55
2023-02-10T21:36:16.352Z,23.52
2023-02-10T21:38:45.145Z,31.45
2023-02-10T21:41:34.477Z,25.92
2023-02-10T21:44:01.840Z,28.10
2023-02-10T21:46:29.118Z,28.60
2023-02-10T21:48:55.821Z,25.20
2023-02-10T21:51:22.594Z,27.33
2023-02-10T21:53:49.661Z,24.55
2023-02-10T21:56:16.799Z,20.33
2023-02-10T21:58:43.527Z,20.95
2023-02-10T22:01:11.353Z,19.73
2023-02-10T22:03:38.640Z,26.08
2023-02-10T22:06:07.040Z,21.30
2023-02-10T22:08:34.304Z,15.70
2023-02-10T22:11:09.711Z,16.33
2023-02-10T22:13:38.058Z,16.10
2023-02-10T22:16:05.973Z,21.27
2023-02-10T22:18:32.744Z,18.58
2023-02-10T22:21:08.046Z,17.67
2023-02-10T22:23:35.779Z,18.98
2023-02-10T22:26:03.137Z,13.20
2023-02-10T22:28:30.772Z,13.50
2023-02-10T22:30:57.710Z,43.63
2023-02-10T22:33:24.593Z,29.77
2023-02-10T22:35:51.543Z,22.58
2023-02-10T22:38:18.382Z,17.10
2023-02-10T22:40:45.920Z,22.42
2023-02-10T22:43:12.705Z,17.35
2023-02-10T22:45:40.442Z,20.77
2023-02-10T22:48:07.056Z,21.73
2023-02-10T22:50:33.748Z,18.50
2023-02-10T22:53:00.422Z,14.15
2023-02-10T22:55:28.233Z,14.75
2023-02-10T22:57:54.956Z,20.48
2023-02-10T23:00:25.270Z,17.35
2023-02-10T23:02:53.852Z,18.38
2023-02-10T23:05:22.351Z,36.22
2023-02-10T23:07:49.025Z,16.92
2023-02-10T23:10:16.382Z,12.18
2023-02-10T23:12:46.315Z,13.20
2023-02-10T23:15:13.128Z,10.15
2023-02-10T23:17:39.733Z,11.68
2023-02-10T23:20:06.992Z,13.70
2023-02-10T23:22:34.900Z,10.30
2023-02-10T23:25:01.670Z,11.80
2023-02-10T23:27:28.341Z,7.95
2023-02-10T23:30:00.150Z,11.48
2023-02-10T23:32:27.094Z,9.75
2023-02-10T23:34:54.448Z,7.65
2023-02-10T23:37:21.618Z,11.75
2023-02-10T23:39:48.303Z,12.52
2023-02-10T23:42:14.981Z,16.30
2023-02-10T23:44:42.191Z,15.13
2023-02-10T23:47:09.270Z,10.35
2023-02-10T23:49:36.213Z,12.02
2023-02-10T23:52:03.425Z,10.02
2023-02-10T23:54:30.265Z,11.25
2023-02-10T23:56:56.964Z,8.77
2023-02-10T23:59:23.677Z,9.57
